createdAt,value
2023-01-01T00:00:43.599Z,81.66
2023-01-01T00:03:10.581Z,81.36
2023-01-01T00:05:40.450Z,81.38
2023-01-01T00:08:07.559Z,81.04
2023-01-01T00:10:34.407Z,81.04
2023-01-01T00:13:01.585Z,80.94
2023-01-01T00:15:29.039Z,81.06
2023-01-01T00:17:57.596Z,81.45
2023-01-01T00:20:26.659Z,81.35
2023-01-01T00:22:57.099Z,81.14
2023-01-01T00:25:25.188Z,81.12
2023-01-01T00:27:52.221Z,80.91
2023-01-01T00:30:19.706Z,80.60
2023-01-01T00:32:55.391Z,80.09
2023-01-01T00:35:26.523Z,80.46
2023-01-01T00:37:54.584Z,80.31
2023-01-01T00:40:21.616Z,79.77
2023-01-01T00:42:48.429Z,79.63
2023-01-01T00:45:20.937Z,79.18
2023-01-01T00:47:53.070Z,79.38
2023-01-01T00:50:21.830Z,79.08
2023-01-01T00:52:49.964Z,78.73
2023-01-01T00:55:16.970Z,78.24
2023-01-01T00:57:43.898Z,78.59
2023-01-01T01:00:11.964Z,78.78
2023-01-01T01:02:39.003Z,78.62
2023-01-01T01:05:06.933Z,78.09
2023-01-01T01:07:36.136Z,78.31
2023-01-01T01:10:03.116Z,78.28
2023-01-01T01:12:29.972Z,78.08
2023-01-01T01:14:56.829Z,77.73
2023-01-01T01:17:24.209Z,77.44
2023-01-01T01:19:51.046Z,77.67
2023-01-01T01:22:21.529Z,77.80
2023-01-01T01:24:51.642Z,77.77
2023-01-01T01:27:18.474Z,77.47
2023-01-01T01:29:45.391Z,77.56
2023-01-01T01:32:12.942Z,77.33
2023-01-01T01:34:39.907Z,77.28
2023-01-01T01:37:06.816Z,77.20
2023-01-01T01:39:33.706Z,76.94
2023-01-01T01:42:03.487Z,76.76
2023-01-01T01:44:54.481Z,77.00
2023-01-01T01:47:47.470Z,76.88
2023-01-01T01:50:37.947Z,76.91
2023-01-01T01:53:22.437Z,76.91
2023-01-01T01:55:54.252Z,77.00
2023-01-01T01:58:21.695Z,77.12
2023-01-01T02:00:49.307Z,77.21
2023-01-01T02:03:27.780Z,77.35
2023-01-01T02:05:55.146Z,77.45
2023-01-01T02:08:22.164Z,77.10
2023-01-01T02:10:49.099Z,76.93
2023-01-01T02:13:16.368Z,76.89
2023-01-01T02:16:00.590Z,76.68
2023-01-01T02:18:41.990Z,76.53
2023-01-01T02:21:26.369Z,76.81
2023-01-01T02:24:17.392Z,76.68
2023-01-01T02:26:57.337Z,76.63
2023-01-01T02:29:54.160Z,76.87
2023-01-01T02:32:44.758Z,77.22
2023-01-01T02:35:38.759Z,76.98
2023-01-01T02:38:18.427Z,77.00
2023-01-01T02:40:54.951Z,77.22
2023-01-01T02:43:25.025Z,77.54
2023-01-01T02:45:54.198Z,77.76
2023-01-01T02:48:53.522Z,77.22
2023-01-01T02:51:23.060Z,77.98
2023-01-01T02:54:17.465Z,78.04
2023-01-01T02:57:41.486Z,78.08
2023-01-01T03:00:28.243Z,78.08
2023-01-01T03:03:28.340Z,78.07
2023-01-01T03:06:35.498Z,77.81
2023-01-01T03:09:21.361Z,77.72
2023-01-01T03:12:10.817Z,78.02
2023-01-01T03:14:40.259Z,78.06
2023-01-01T03:17:26.789Z,78.23
2023-01-01T03:19:56.255Z,78.30
2023-01-01T03:22:30.238Z,78.78
2023-01-01T03:25:12.546Z,78.25
2023-01-01T03:28:02.676Z,78.73
2023-01-01T03:30:31.194Z,79.06
2023-01-01T03:33:08.266Z,79.57
2023-01-01T03:35:50.758Z,79.56
2023-01-01T03:38:35.681Z,79.70
2023-01-01T03:41:45.309Z,79.59
2023-01-01T03:44:47.501Z,79.94
2023-01-01T03:47:14.782Z,80.34
2023-01-01T03:49:42.576Z,80.40
2023-01-01T03:52:27.456Z,80.19
2023-01-01T03:55:24.078Z,80.66
2023-01-01T03:58:25.174Z,80.63
2023-01-01T04:01:10.330Z,80.90
2023-01-01T04:03:39.417Z,80.82
2023-01-01T04:06:07.291Z,81.51
2023-01-01T04:08:35.698Z,81.57
2023-01-01T04:11:29.608Z,81.43
2023-01-01T04:13:57.100Z,81.49
2023-01-01T04:16:23.995Z,81.55
2023-01-01T04:18:51.207Z,82.18
2023-01-01T04:21:18.021Z,81.76
2023-01-01T04:23:44.897Z,81.59
2023-01-01T04:26:15.630Z,81.37
2023-01-01T04:28:43.067Z,81.22
2023-01-01T04:31:10.378Z,82.05
2023-01-01T04:33:37.534Z,81.84
2023-01-01T04:36:10.065Z,81.21
2023-01-01T04:38:38.388Z,81.15
2023-01-01T04:41:05.718Z,81.35
2023-01-01T04:43:33.000Z,81.86
2023-01-01T04:46:02.729Z,81.57
2023-01-01T04:48:31.215Z,81.11
2023-01-01T04:51:01.431Z,81.71
2023-01-01T04:53:34.493Z,81.60
2023-01-01T04:56:09.255Z,81.37
2023-01-01T04:58:38.385Z,81.60
2023-01-01T05:01:06.525Z,81.86
2023-01-01T05:03:33.824Z,81.96
2023-01-01T05:06:07.233Z,81.36
2023-01-01T05:08:37.125Z,81.66
2023-01-01T05:11:29.019Z,81.26
2023-01-01T05:13:59.465Z,81.62
2023-01-01T05:16:31.007Z,81.56
2023-01-01T05:18:58.399Z,81.52
2023-01-01T05:21:33.848Z,81.04
2023-01-01T05:24:04.578Z,80.88
2023-01-01T05:26:36.008Z,80.84
2023-01-01T05:29:04.029Z,81.42
2023-01-01T05:31:34.228Z,80.78
2023-01-01T05:36:38.976Z,80.74
2023-01-01T05:39:07.925Z,80.39
2023-01-01T05:41:36.501Z,80.78
2023-01-01T05:44:06.588Z,80.29
2023-01-01T05:46:33.656Z,80.41
2023-01-01T05:49:01.045Z,80.29
2023-01-01T05:51:29.636Z,80.25
2023-01-01T05:53:57.352Z,80.62
2023-01-01T05:56:24.880Z,80.28
2023-01-01T05:58:51.724Z,80.05
2023-01-01T06:01:24.443Z,80.28
2023-01-01T06:03:53.928Z,80.03
2023-01-01T06:06:25.827Z,79.33
2023-01-01T06:09:04.588Z,79.84
2023-01-01T06:11:32.996Z,79.33
2023-01-01T06:14:01.273Z,79.69
2023-01-01T06:16:30.346Z,79.44
2023-01-01T06:18:57.353Z,79.42
2023-01-01T06:21:26.590Z,80.20
2023-01-01T06:23:56.838Z,79.61
2023-01-01T06:26:29.163Z,79.62
2023-01-01T06:28:57.578Z,79.41
2023-01-01T06:31:24.807Z,79.57
2023-01-01T06:33:51.748Z,79.65
2023-01-01T06:36:22.372Z,80.16
2023-01-01T06:38:53.197Z,79.54
2023-01-01T06:41:26.280Z,79.72
2023-01-01T06:43:55.211Z,79.80
2023-01-01T06:46:28.792Z,79.93
2023-01-01T06:49:01.835Z,80.28
2023-01-01T06:51:36.900Z,80.32
2023-01-01T06:54:05.548Z,80.43
2023-01-01T06:56:33.130Z,79.77
2023-01-01T06:59:00.446Z,80.05
2023-01-01T07:01:31.240Z,79.81
2023-01-01T07:03:59.144Z,79.76
2023-01-01T07:06:27.589Z,80.35
2023-01-01T07:08:54.556Z,80.36
2023-01-01T07:11:21.684Z,80.09
2023-01-01T07:13:48.613Z,79.88
2023-01-01T07:16:15.620Z,80.08
2023-01-01T07:18:42.861Z,80.00
2023-01-01T07:21:32.210Z,79.36
2023-01-01T07:24:05.601Z,79.63
2023-01-01T07:26:33.810Z,79.64
2023-01-01T07:29:08.759Z,79.11
2023-01-01T07:31:41.315Z,79.18
2023-01-01T07:34:13.602Z,79.04
2023-01-01T07:36:41.180Z,78.62
2023-01-01T07:39:08.234Z,78.04
2023-01-01T07:41:35.105Z,78.43
2023-01-01T07:44:02.005Z,77.94
2023-01-01T07:46:29.323Z,78.26
2023-01-01T07:48:57.053Z,77.32
2023-01-01T07:51:23.972Z,77.48
2023-01-01T07:53:50.959Z,77.09
2023-01-01T07:56:18.096Z,76.69
2023-01-01T07:58:45.005Z,76.55
2023-01-01T08:01:14.435Z,75.92
2023-01-01T08:03:41.454Z,76.38
2023-01-01T08:06:11.098Z,75.90
2023-01-01T08:08:38.567Z,75.61
2023-01-01T08:11:05.732Z,74.85
2023-01-01T08:13:32.595Z,74.17
2023-01-01T08:15:59.697Z,73.92
2023-01-01T08:18:26.875Z,73.49
2023-01-01T08:20:54.163Z,72.32
2023-01-01T08:23:21.057Z,71.62
2023-01-01T08:25:47.910Z,70.04
2023-01-01T08:28:14.727Z,68.31
2023-01-01T08:30:41.698Z,66.03
2023-01-01T08:33:08.555Z,64.60
2023-01-01T08:35:40.713Z,63.97
2023-01-01T08:38:10.567Z,62.91
2023-01-01T08:40:37.561Z,62.27
2023-01-01T08:43:04.515Z,60.88
2023-01-01T08:45:31.356Z,59.67
2023-01-01T08:47:58.321Z,58.65
2023-01-01T08:50:25.180Z,57.39
2023-01-01T08:52:52.020Z,56.75
2023-01-01T08:55:18.851Z,56.83
2023-01-01T08:57:45.695Z,57.63
2023-01-01T09:00:13.609Z,58.24
2023-01-01T09:02:40.625Z,58.85
2023-01-01T09:05:08.566Z,59.10
2023-01-01T09:07:35.537Z,59.18
2023-01-01T09:10:02.378Z,59.70
2023-01-01T09:12:29.643Z,60.14
2023-01-01T09:14:56.505Z,60.85
2023-01-01T09:17:23.311Z,61.90
2023-01-01T09:19:50.146Z,62.04
2023-01-01T09:22:17.015Z,62.05
2023-01-01T09:24:43.871Z,62.05
2023-01-01T09:27:10.715Z,62.15
2023-01-01T09:29:37.514Z,62.53
2023-01-01T09:32:04.813Z,62.34
2023-01-01T09:34:31.673Z,62.55
2023-01-01T09:36:58.541Z,62.63
2023-01-01T09:39:25.394Z,62.84
2023-01-01T09:42:33.529Z,62.42
2023-01-01T09:45:15.357Z,62.59
2023-01-01T09:47:51.500Z,62.70
2023-01-01T09:50:23.421Z,62.88
2023-01-01T09:52:57.714Z,62.61
2023-01-01T09:55:42.607Z,62.14
2023-01-01T09:58:11.986Z,62.33
2023-01-01T10:00:46.866Z,62.13
2023-01-01T10:03:51.799Z,62.32
2023-01-01T10:06:28.122Z,62.06
2023-01-01T10:09:16.553Z,61.66
2023-01-01T10:12:17.103Z,61.62
2023-01-01T10:15:00.545Z,61.76
2023-01-01T10:17:42.063Z,61.97
2023-01-01T10:20:22.816Z,62.56
2023-01-01T10:22:56.789Z,62.29
2023-01-01T10:25:27.867Z,62.68
2023-01-01T10:28:00.603Z,62.54
2023-01-01T10:30:29.292Z,62.06
2023-01-01T10:32:57.606Z,62.10
2023-01-01T10:35:40.136Z,62.53
2023-01-01T10:38:07.187Z,62.16
2023-01-01T10:40:34.428Z,62.35
2023-01-01T10:43:03.941Z,62.84
2023-01-01T10:45:36.740Z,61.86
2023-01-01T10:48:15.473Z,63.12
2023-01-01T10:50:44.970Z,61.12
2023-01-01T10:53:33.971Z,61.37
2023-01-01T10:56:06.542Z,61.00
2023-01-01T10:58:52.171Z,60.56
2023-01-01T11:01:19.066Z,60.97
2023-01-01T11:04:20.944Z,60.73
2023-01-01T11:06:48.415Z,60.30
2023-01-01T11:09:38.452Z,60.23
2023-01-01T11:12:54.566Z,60.47
2023-01-01T11:15:08.312Z,60.87
2023-01-01T11:17:36.942Z,61.13
2023-01-01T11:20:06.658Z,61.10
2023-01-01T11:22:47.167Z,61.76
2023-01-01T11:25:28.414Z,61.70
2023-01-01T11:28:21.340Z,62.20
2023-01-01T11:31:16.820Z,62.23
2023-01-01T11:33:55.320Z,62.04
2023-01-01T11:36:34.478Z,62.38
2023-01-01T11:39:37.485Z,63.08
2023-01-01T11:42:06.244Z,62.60
2023-01-01T11:44:43.836Z,62.66
2023-01-01T11:47:38.337Z,62.75
2023-01-01T11:50:14.286Z,62.31
2023-01-01T11:52:44.800Z,62.33
2023-01-01T11:55:37.957Z,62.67
2023-01-01T11:58:40.267Z,62.50
2023-01-01T12:01:21.500Z,62.44
2023-01-01T12:04:08.764Z,62.49
2023-01-01T12:07:24.144Z,62.67
2023-01-01T12:09:57.623Z,62.66
2023-01-01T12:12:37.099Z,62.12
2023-01-01T12:15:35.862Z,62.21
2023-01-01T12:18:32.204Z,61.51
2023-01-01T12:21:03.680Z,61.58
2023-01-01T12:23:32.496Z,62.23
2023-01-01T12:26:55.527Z,61.61
2023-01-01T12:29:37.589Z,61.79
2023-01-01T12:33:08.419Z,63.37
2023-01-01T12:36:16.210Z,62.39
2023-01-01T12:38:51.673Z,62.39
2023-01-01T12:42:01.957Z,62.63
2023-01-01T12:45:16.073Z,63.49
2023-01-01T12:48:00.551Z,63.05
2023-01-01T12:51:12.876Z,63.08
2023-01-01T12:53:52.376Z,63.57
2023-01-01T12:57:10.585Z,63.58
2023-01-01T12:59:42.478Z,63.91
2023-01-01T13:02:22.690Z,63.48
2023-01-01T13:04:56.315Z,63.54
2023-01-01T13:07:45.891Z,63.72
2023-01-01T13:10:46.782Z,63.30
2023-01-01T13:13:14.857Z,63.81
2023-01-01T13:15:43.033Z,63.56
2023-01-01T13:18:16.122Z,63.30
2023-01-01T13:21:03.084Z,63.62
2023-01-01T13:23:34.527Z,63.66
2023-01-01T13:26:22.702Z,63.77
2023-01-01T13:28:58.497Z,63.72
2023-01-01T13:31:40.494Z,64.14
2023-01-01T13:34:38.011Z,64.24
2023-01-01T13:37:10.827Z,64.20
2023-01-01T13:40:04.431Z,63.99
2023-01-01T13:42:52.905Z,63.25
2023-01-01T13:46:10.885Z,63.42
2023-01-01T13:48:57.577Z,63.94
2023-01-01T13:52:15.985Z,63.89
2023-01-01T13:55:19.775Z,63.95
2023-01-01T13:58:15.976Z,63.61
2023-01-01T14:01:20.703Z,64.40
2023-01-01T14:03:52.401Z,64.12
2023-01-01T14:06:39.579Z,64.82
2023-01-01T14:09:15.511Z,64.72
2023-01-01T14:11:42.564Z,64.83
2023-01-01T14:14:28.349Z,64.74
2023-01-01T14:17:01.820Z,64.49
2023-01-01T14:19:30.004Z,64.88
2023-01-01T14:21:57.231Z,64.52
2023-01-01T14:24:25.375Z,64.83
2023-01-01T14:26:54.859Z,65.04
2023-01-01T14:29:31.120Z,64.74
2023-01-01T14:32:02.199Z,64.56
2023-01-01T14:34:32.673Z,64.52
2023-01-01T14:37:06.332Z,64.10
2023-01-01T14:39:37.326Z,63.93
2023-01-01T14:42:07.070Z,63.91
2023-01-01T14:44:45.243Z,64.65
2023-01-01T14:47:29.575Z,64.24
2023-01-01T14:50:13.125Z,64.47
2023-01-01T14:52:40.473Z,64.03
2023-01-01T14:55:08.444Z,63.91
2023-01-01T14:57:37.351Z,64.31
2023-01-01T15:00:28.894Z,64.53
2023-01-01T15:03:05.523Z,64.36
2023-01-01T15:05:36.154Z,64.44
2023-01-01T15:08:07.501Z,64.37
2023-01-01T15:10:37.498Z,64.03
2023-01-01T15:13:07.801Z,64.29
2023-01-01T15:15:34.819Z,64.74
2023-01-01T15:18:01.765Z,64.85
2023-01-01T15:20:29.813Z,64.16
2023-01-01T15:22:56.706Z,65.08
2023-01-01T15:25:24.627Z,65.01
2023-01-01T15:27:54.593Z,64.98
2023-01-01T15:30:31.999Z,64.27
2023-01-01T15:33:13.982Z,64.90
2023-01-01T15:35:41.027Z,64.89
2023-01-01T15:38:21.161Z,64.84
2023-01-01T15:40:53.344Z,64.61
2023-01-01T15:43:31.595Z,65.39
2023-01-01T15:46:20.000Z,65.27
2023-01-01T15:48:52.330Z,65.56
2023-01-01T15:51:22.935Z,65.55
2023-01-01T15:54:00.546Z,65.32
2023-01-01T15:56:33.436Z,65.32
2023-01-01T15:59:09.793Z,65.47
2023-01-01T16:01:40.439Z,65.30
2023-01-01T16:04:27.997Z,65.38
2023-01-01T16:07:00.304Z,65.54
2023-01-01T16:09:27.450Z,65.79
2023-01-01T16:11:57.454Z,66.43
2023-01-01T16:14:25.317Z,66.34
2023-01-01T16:17:00.689Z,66.52
2023-01-01T16:19:30.964Z,66.61
2023-01-01T16:21:58.248Z,67.19
2023-01-01T16:24:25.320Z,67.46
2023-01-01T16:26:54.957Z,68.03
2023-01-01T16:29:21.819Z,67.73
2023-01-01T16:31:51.883Z,67.87
2023-01-01T16:34:18.719Z,67.55
2023-01-01T16:36:45.664Z,67.96
2023-01-01T16:39:12.860Z,67.32
2023-01-01T16:41:44.145Z,67.63
2023-01-01T16:44:17.502Z,67.36
2023-01-01T16:46:44.445Z,67.30
2023-01-01T16:49:11.333Z,66.89
2023-01-01T16:51:43.256Z,67.41
2023-01-01T16:54:10.947Z,67.43
2023-01-01T16:56:37.856Z,68.00
2023-01-01T16:59:04.683Z,68.29
2023-01-01T17:01:31.999Z,67.56
2023-01-01T17:03:59.734Z,67.46
2023-01-01T17:06:26.588Z,67.48
2023-01-01T17:08:53.627Z,67.08
2023-01-01T17:11:21.132Z,67.73
2023-01-01T17:13:48.521Z,67.39
2023-01-01T17:16:21.144Z,67.25
2023-01-01T17:19:14.470Z,66.79
2023-01-01T17:21:39.777Z,66.45
2023-01-01T17:24:07.155Z,66.08
2023-01-01T17:26:34.004Z,65.58
2023-01-01T17:29:02.952Z,65.05
2023-01-01T17:31:30.172Z,64.72
2023-01-01T17:33:57.602Z,64.41
2023-01-01T17:36:26.997Z,64.33
2023-01-01T17:38:53.876Z,63.92
2023-01-01T17:41:20.748Z,64.27
2023-01-01T17:43:50.804Z,64.19
2023-01-01T17:46:24.692Z,64.06
2023-01-01T17:48:52.270Z,64.42
2023-01-01T17:51:19.991Z,64.25
2023-01-01T17:53:47.887Z,64.22
2023-01-01T17:56:17.288Z,64.90
2023-01-01T17:58:46.383Z,64.88
2023-01-01T18:01:15.882Z,65.45
2023-01-01T18:03:43.096Z,65.29
2023-01-01T18:06:10.037Z,65.88
2023-01-01T18:08:36.966Z,65.64
2023-01-01T18:11:04.231Z,65.87
2023-01-01T18:13:32.117Z,65.90
2023-01-01T18:16:08.211Z,66.30
2023-01-01T18:18:39.316Z,66.53
2023-01-01T18:21:11.413Z,66.13
2023-01-01T18:23:39.942Z,66.28
2023-01-01T18:26:10.089Z,67.12
2023-01-01T18:28:37.270Z,67.05
2023-01-01T18:31:14.212Z,67.01
2023-01-01T18:33:41.695Z,67.45
2023-01-01T18:36:16.418Z,67.77
2023-01-01T18:39:01.414Z,67.68
2023-01-01T18:41:41.036Z,68.05
2023-01-01T18:44:26.447Z,68.13
2023-01-01T18:47:04.292Z,67.81
2023-01-01T18:49:32.712Z,68.38
2023-01-01T18:52:22.943Z,68.72
2023-01-01T18:55:08.494Z,69.20
2023-01-01T18:57:35.837Z,69.57
2023-01-01T19:00:21.193Z,70.33
2023-01-01T19:03:02.045Z,70.26
2023-01-01T19:05:35.224Z,70.87
2023-01-01T19:08:09.429Z,71.01
2023-01-01T19:10:53.676Z,71.22
2023-01-01T19:13:43.094Z,71.37
2023-01-01T19:16:13.056Z,71.24
2023-01-01T19:18:45.184Z,71.69
2023-01-01T19:21:11.960Z,71.91
2023-01-01T19:24:00.657Z,72.20
2023-01-01T19:26:33.300Z,72.70
2023-01-01T19:29:09.783Z,72.52
2023-01-01T19:31:36.691Z,73.04
2023-01-01T19:34:03.570Z,73.12
2023-01-01T19:36:30.778Z,73.53
2023-01-01T19:38:57.687Z,73.69
2023-01-01T19:41:31.744Z,73.64
2023-01-01T19:43:58.827Z,73.62
2023-01-01T19:46:25.691Z,73.60
2023-01-01T19:48:55.722Z,73.88
2023-01-01T19:51:22.956Z,74.36
2023-01-01T19:53:51.648Z,74.17
2023-01-01T19:56:18.714Z,74.24
2023-01-01T19:58:46.310Z,73.96
2023-01-01T20:01:14.422Z,74.39
2023-01-01T20:03:57.841Z,75.15
2023-01-01T20:06:25.486Z,75.22
2023-01-01T20:08:53.175Z,75.26
2023-01-01T20:11:20.947Z,75.24
2023-01-01T20:13:47.885Z,75.45
2023-01-01T20:16:14.774Z,75.54
2023-01-01T20:18:41.694Z,75.45
2023-01-01T20:21:27.238Z,75.87
2023-01-01T20:23:55.469Z,75.94
2023-01-01T20:26:23.870Z,76.21
2023-01-01T20:29:09.364Z,76.04
2023-01-01T20:31:36.635Z,76.40
2023-01-01T20:34:03.942Z,76.62
2023-01-01T20:36:49.413Z,76.50
2023-01-01T20:39:16.236Z,76.99
2023-01-01T20:41:43.097Z,77.09
2023-01-01T20:44:10.083Z,76.78
2023-01-01T20:46:38.348Z,76.80
2023-01-01T20:49:05.661Z,76.58
2023-01-01T20:51:33.094Z,76.63
2023-01-01T20:54:00.198Z,76.87
2023-01-01T20:56:27.032Z,76.77
2023-01-01T20:58:59.519Z,77.13
2023-01-01T21:01:30.031Z,77.33
2023-01-01T21:03:57.274Z,76.89
2023-01-01T21:06:24.966Z,77.33
2023-01-01T21:08:52.643Z,77.54
2023-01-01T21:11:19.461Z,77.03
2023-01-01T21:13:46.552Z,76.75
2023-01-01T21:16:30.639Z,76.96
2023-01-01T21:18:59.034Z,77.18
2023-01-01T21:21:30.346Z,76.58
2023-01-01T21:24:19.092Z,76.76
2023-01-01T21:26:46.116Z,76.55
2023-01-01T21:29:22.565Z,76.57
2023-01-01T21:32:04.081Z,77.19
2023-01-01T21:34:44.187Z,77.45
2023-01-01T21:37:43.966Z,76.27
2023-01-01T21:40:54.143Z,75.85
2023-01-01T21:43:39.917Z,76.05
2023-01-01T21:46:06.719Z,75.05
2023-01-01T21:48:42.727Z,74.70
2023-01-01T21:51:37.580Z,74.22
2023-01-01T21:54:10.522Z,73.71
2023-01-01T21:56:40.135Z,73.20
2023-01-01T21:59:27.108Z,73.45
2023-01-01T22:02:04.274Z,72.91
2023-01-01T22:04:39.731Z,72.76
2023-01-01T22:13:16.424Z,72.29
2023-01-01T22:15:44.455Z,72.02
2023-01-01T22:18:30.615Z,72.01
2023-01-01T22:20:58.191Z,71.65
2023-01-01T22:23:35.645Z,71.75
2023-01-01T22:26:27.827Z,71.62
2023-01-01T22:29:00.444Z,71.44
2023-01-01T22:31:34.269Z,71.41
2023-01-01T22:34:19.795Z,71.54
2023-01-01T22:36:46.847Z,71.57
2023-01-01T22:39:32.952Z,71.49
2023-01-01T22:41:59.823Z,71.89
2023-01-01T22:44:27.416Z,71.73
2023-01-01T22:46:58.612Z,71.81
2023-01-01T22:49:39.080Z,71.68
2023-01-01T22:52:07.530Z,71.97
2023-01-01T22:54:34.477Z,72.06
2023-01-01T22:57:01.725Z,72.06
2023-01-01T22:59:28.541Z,71.82
2023-01-01T23:01:57.660Z,71.93
2023-01-01T23:04:24.473Z,72.19
2023-01-01T23:09:19.855Z,72.33
2023-01-01T23:11:46.769Z,71.99
2023-01-01T23:14:38.798Z,71.73
2023-01-01T23:17:06.295Z,71.61
2023-01-01T23:19:33.241Z,71.99
2023-01-01T23:22:04.587Z,71.75
2023-01-01T23:24:32.413Z,72.03
2023-01-01T23:27:00.547Z,72.01
2023-01-01T23:29:30.995Z,72.03
2023-01-01T23:31:58.319Z,71.68
2023-01-01T23:34:25.472Z,72.03
2023-01-01T23:36:53.815Z,72.02
2023-01-01T23:39:20.691Z,71.86
2023-01-01T23:41:47.627Z,71.72
2023-01-01T23:44:14.450Z,72.03
2023-01-01T23:46:41.534Z,72.01
2023-01-01T23:49:08.613Z,72.06
2023-01-01T23:51:36.239Z,72.56
2023-01-01T23:54:03.125Z,72.57
2023-01-01T23:56:30.035Z,72.61
2023-01-01T23:58:56.937Z,72.82
